createdAt,value
2022-09-11T00:01:18.712Z,99945.00
2022-09-11T00:03:51.178Z,99945.47
2022-09-11T00:06:29.254Z,99951.91
2022-09-11T00:09:03.459Z,99943.59
2022-09-11T00:11:42.992Z,99943.34
2022-09-11T00:14:14.369Z,99944.03
2022-09-11T00:16:46.677Z,99938.22
2022-09-11T00:19:23.260Z,99934.38
2022-09-11T00:21:52.142Z,99920.28
2022-09-11T00:24:22.513Z,99928.41
2022-09-11T00:26:51.776Z,99925.03
2022-09-11T00:29:22.373Z,99924.94
2022-09-11T00:31:51.186Z,99917.59
2022-09-11T00:34:28.200Z,99921.38
2022-09-11T00:36:58.570Z,99919.66
2022-09-11T00:39:28.610Z,99928.53
2022-09-11T00:41:57.245Z,99915.41
2022-09-11T00:44:28.958Z,99924.47
2022-09-11T00:47:03.914Z,99931.00
2022-09-11T00:49:45.965Z,99933.63
2022-09-11T00:52:26.946Z,99937.34
2022-09-11T00:55:10.120Z,99927.03
2022-09-11T00:58:13.882Z,99933.03
2022-09-11T01:00:46.692Z,99924.09
2022-09-11T01:03:20.952Z,99928.38
2022-09-11T01:05:52.974Z,99931.03
2022-09-11T01:08:28.401Z,99926.72
2022-09-11T01:11:00.469Z,99927.47
2022-09-11T01:13:41.404Z,99926.06
2022-09-11T01:16:56.098Z,99925.13
2022-09-11T01:20:06.144Z,99922.78
2022-09-11T01:23:29.115Z,99917.03
2022-09-11T01:26:19.369Z,99908.81
2022-09-11T01:29:32.268Z,99914.19
2022-09-11T01:32:22.663Z,99898.75
2022-09-11T01:35:10.529Z,99901.56
2022-09-11T01:37:51.745Z,99903.38
2022-09-11T01:40:29.235Z,99901.31
2022-09-11T01:43:17.076Z,99890.94
2022-09-11T01:45:49.528Z,99884.59
2022-09-11T01:48:23.005Z,99882.16
2022-09-11T01:50:55.210Z,99887.81
2022-09-11T01:53:35.337Z,99889.94
2022-09-11T01:56:17.928Z,99890.28
2022-09-11T01:58:59.031Z,99888.19
2022-09-11T02:01:36.418Z,99884.22
2022-09-11T02:04:12.268Z,99882.19
2022-09-11T02:06:49.658Z,99877.81
2022-09-11T02:09:29.374Z,99881.13
2022-09-11T02:12:02.807Z,99877.44
2022-09-11T02:14:41.004Z,99875.38
2022-09-11T02:17:38.303Z,99878.19
2022-09-11T02:20:14.604Z,99881.50
2022-09-11T02:22:45.613Z,99877.75
2022-09-11T02:25:17.610Z,99881.72
2022-09-11T02:27:50.673Z,99870.28
2022-09-11T02:30:22.214Z,99874.81
2022-09-11T02:32:56.255Z,99866.72
2022-09-11T02:35:30.660Z,99869.66
2022-09-11T02:38:33.754Z,99865.78
2022-09-11T02:41:14.295Z,99874.72
2022-09-11T02:44:03.721Z,99872.37
2022-09-11T02:46:51.003Z,99873.59
2022-09-11T02:49:44.851Z,99878.56
2022-09-11T02:52:58.387Z,99883.34
2022-09-11T02:55:46.051Z,99881.94
2022-09-11T02:58:29.545Z,99883.00
2022-09-11T03:01:01.365Z,99883.28
2022-09-11T03:03:45.798Z,99883.84
2022-09-11T03:06:25.560Z,99880.84
2022-09-11T03:08:55.814Z,99881.88
2022-09-11T03:11:33.615Z,99879.87
2022-09-11T03:14:06.417Z,99885.38
2022-09-11T03:16:38.346Z,99879.87
2022-09-11T03:19:10.914Z,99882.75
2022-09-11T03:21:43.580Z,99884.78
2022-09-11T03:24:14.582Z,99886.37
2022-09-11T03:26:54.436Z,99889.44
2022-09-11T03:29:22.395Z,99884.34
2022-09-11T03:31:57.630Z,99876.66
2022-09-11T03:34:29.954Z,99891.59
2022-09-11T03:37:10.569Z,99880.09
2022-09-11T03:39:44.460Z,99884.44
2022-09-11T03:42:21.623Z,99881.59
2022-09-11T03:44:54.506Z,99886.69
2022-09-11T03:47:25.615Z,99883.50
2022-09-11T03:50:05.342Z,99884.53
2022-09-11T03:52:37.455Z,99887.41
2022-09-11T03:55:08.527Z,99891.66
2022-09-11T03:57:39.468Z,99894.69
2022-09-11T04:00:15.085Z,99901.91
2022-09-11T04:02:50.488Z,99896.47
2022-09-11T04:05:26.352Z,99896.31
2022-09-11T04:07:58.992Z,99901.19
2022-09-11T04:10:40.092Z,99894.59
2022-09-11T04:13:14.334Z,99905.91
2022-09-11T04:15:43.412Z,99903.00
2022-09-11T04:18:19.414Z,99902.31
2022-09-11T04:20:51.735Z,99900.63
2022-09-11T04:23:27.955Z,99905.53
2022-09-11T04:26:19.721Z,99903.84
2022-09-11T04:29:01.264Z,99901.09
2022-09-11T04:31:32.137Z,99902.91
2022-09-11T04:34:06.412Z,99908.75
2022-09-11T04:36:39.736Z,99898.09
2022-09-11T04:39:25.887Z,99895.03
2022-09-11T04:42:01.551Z,99897.91
2022-09-11T04:44:34.650Z,99900.81
2022-09-11T04:47:11.335Z,99897.78
2022-09-11T04:49:43.001Z,99900.94
2022-09-11T04:52:17.059Z,99900.63
2022-09-11T04:54:49.865Z,99905.06
2022-09-11T04:57:29.867Z,99902.06
2022-09-11T05:00:11.253Z,99904.41
2022-09-11T05:02:51.041Z,99905.16
2022-09-11T05:05:22.021Z,99897.53
2022-09-11T05:07:57.222Z,99901.28
2022-09-11T05:10:32.650Z,99907.22
2022-09-11T05:13:08.746Z,99901.66
2022-09-11T05:16:11.156Z,99900.13
2022-09-11T05:18:44.844Z,99902.84
2022-09-11T05:21:24.864Z,99910.13
2022-09-11T05:24:34.397Z,99912.00
2022-09-11T05:26:54.664Z,99916.84
2022-09-11T05:29:33.996Z,99928.72
2022-09-11T05:32:10.435Z,99925.03
2022-09-11T05:34:59.554Z,99927.47
2022-09-11T05:37:32.960Z,99924.94
2022-09-11T05:40:12.795Z,99933.41
2022-09-11T05:42:44.171Z,99935.41
2022-09-11T05:45:23.331Z,99933.63
2022-09-11T05:48:00.188Z,99938.06
2022-09-11T05:50:38.309Z,99933.63
2022-09-11T05:53:14.609Z,99928.72
2022-09-11T05:55:48.046Z,99930.03
2022-09-11T05:58:22.194Z,99937.94
2022-09-11T06:01:04.063Z,99935.41
2022-09-11T06:03:53.346Z,99938.19
2022-09-11T06:06:48.363Z,99942.97
2022-09-11T06:09:24.283Z,99943.09
2022-09-11T06:11:59.939Z,99942.66
2022-09-11T06:14:42.672Z,99948.34
2022-09-11T06:17:15.259Z,99949.53
2022-09-11T06:19:55.286Z,99953.63
2022-09-11T06:22:31.488Z,99954.91
2022-09-11T06:25:02.463Z,99955.94
2022-09-11T06:27:38.207Z,99948.00
2022-09-11T06:30:20.217Z,99942.97
2022-09-11T06:33:05.858Z,99944.44
2022-09-11T06:36:06.945Z,99946.34
2022-09-11T06:38:39.403Z,99943.50
2022-09-11T06:41:14.505Z,99939.09
2022-09-11T06:44:00.554Z,99936.12
2022-09-11T06:46:33.444Z,99945.25
2022-09-11T06:49:06.609Z,99935.75
2022-09-11T06:51:50.517Z,99943.56
2022-09-11T06:54:27.783Z,99936.25
2022-09-11T06:57:10.979Z,99939.22
2022-09-11T06:59:47.976Z,99944.00
2022-09-11T07:02:16.733Z,99939.84
2022-09-11T07:05:11.020Z,99935.69
2022-09-11T07:07:54.417Z,99939.16
2022-09-11T07:10:33.964Z,99934.56
2022-09-11T07:13:11.797Z,99938.81
2022-09-11T07:15:42.859Z,99921.69
2022-09-11T07:18:15.481Z,99927.53
2022-09-11T07:20:45.152Z,99917.25
2022-09-11T07:23:20.432Z,99922.81
2022-09-11T07:25:50.158Z,99921.75
2022-09-11T07:28:29.898Z,99918.13
2022-09-11T07:31:18.708Z,99905.53
2022-09-11T07:33:57.209Z,99906.28
2022-09-11T07:36:32.453Z,99902.72
2022-09-11T07:39:09.994Z,99900.88
2022-09-11T07:41:55.843Z,99909.50
2022-09-11T07:44:29.025Z,99907.59
2022-09-11T07:47:07.727Z,99907.03
2022-09-11T07:49:47.783Z,99904.59
2022-09-11T07:52:26.522Z,99914.50
2022-09-11T07:54:58.061Z,99910.66
2022-09-11T07:57:32.774Z,99918.13
2022-09-11T08:00:13.441Z,99916.13
2022-09-11T08:02:52.081Z,99917.13
2022-09-11T08:05:21.522Z,99916.22
2022-09-11T08:07:55.366Z,99917.16
2022-09-11T08:10:44.731Z,99913.12
2022-09-11T08:13:35.665Z,99916.03
2022-09-11T08:16:20.864Z,99915.56
2022-09-11T08:18:57.939Z,99913.12
2022-09-11T08:22:04.265Z,99919.19
2022-09-11T08:24:45.443Z,99920.38
2022-09-11T08:27:19.159Z,99917.25
2022-09-11T08:30:05.348Z,99918.34
2022-09-11T08:32:48.897Z,99916.41
2022-09-11T08:38:38.305Z,99912.22
2022-09-11T08:41:36.163Z,99909.13
2022-09-11T08:44:22.679Z,99909.81
2022-09-11T08:47:11.221Z,99910.94
2022-09-11T08:49:49.690Z,99915.44
2022-09-11T08:52:36.919Z,99905.19
2022-09-11T08:55:19.520Z,99911.56
2022-09-11T08:58:12.095Z,99906.00
2022-09-11T09:01:11.407Z,99913.41
2022-09-11T09:04:13.196Z,99906.84
2022-09-11T09:07:06.581Z,99908.56
2022-09-11T09:10:24.928Z,99917.75
2022-09-11T09:13:41.618Z,99918.34
2022-09-11T09:16:30.094Z,99910.41
2022-09-11T09:19:19.814Z,99905.19
2022-09-11T09:21:58.473Z,99901.06
2022-09-11T09:24:40.757Z,99906.94
2022-09-11T09:27:57.428Z,99911.66
2022-09-11T09:30:36.674Z,99905.81
2022-09-11T09:33:17.167Z,99905.50
2022-09-11T09:35:53.161Z,99904.44
2022-09-11T09:38:38.929Z,99894.06
2022-09-11T09:42:01.638Z,99902.91
2022-09-11T09:44:48.974Z,99903.47
2022-09-11T09:47:34.095Z,99905.12
2022-09-11T09:50:30.771Z,99898.56
2022-09-11T09:53:14.866Z,99894.34
2022-09-11T09:56:45.384Z,99894.97
2022-09-11T09:59:06.119Z,99896.31
2022-09-11T10:01:46.235Z,99894.97
2022-09-11T10:04:28.108Z,99893.97
2022-09-11T10:07:15.887Z,99895.41
2022-09-11T10:09:56.010Z,99894.22
2022-09-11T10:12:35.515Z,99898.53
2022-09-11T10:15:21.388Z,99905.12
2022-09-11T10:18:40.492Z,99900.34
2022-09-11T10:21:33.916Z,99897.28
2022-09-11T10:24:26.683Z,99907.63
2022-09-11T10:27:08.168Z,99907.94
2022-09-11T10:29:57.677Z,99904.88
2022-09-11T10:32:39.544Z,99902.63
2022-09-11T10:35:24.717Z,99906.25
2022-09-11T10:38:18.678Z,99905.78
2022-09-11T10:41:14.700Z,99900.31
2022-09-11T10:44:04.034Z,99892.47
2022-09-11T10:46:44.454Z,99891.19
2022-09-11T10:49:25.806Z,99890.16
2022-09-11T10:52:15.254Z,99887.28
2022-09-11T10:55:00.078Z,99884.69
2022-09-11T10:57:56.384Z,99884.81
2022-09-11T11:00:45.243Z,99872.75
2022-09-11T11:03:24.524Z,99858.16
2022-09-11T11:07:01.975Z,99861.13
2022-09-11T11:10:00.453Z,99871.34
2022-09-11T11:12:40.675Z,99870.19
2022-09-11T11:15:31.277Z,99861.78
2022-09-11T11:18:23.277Z,99859.03
2022-09-11T11:21:15.639Z,99865.19
2022-09-11T11:23:56.514Z,99851.47
2022-09-11T11:26:37.105Z,99856.91
2022-09-11T11:29:23.065Z,99860.50
2022-09-11T11:32:32.259Z,99850.91
2022-09-11T11:35:26.806Z,99862.13
2022-09-11T11:38:27.312Z,99850.53
2022-09-11T11:41:03.396Z,99849.50
2022-09-11T11:43:39.251Z,99858.59
2022-09-11T11:46:28.945Z,99853.34
2022-09-11T11:49:09.221Z,99847.28
2022-09-11T11:52:05.955Z,99849.19
2022-09-11T11:55:04.400Z,99855.91
2022-09-11T11:57:40.111Z,99866.44
2022-09-11T12:00:29.332Z,99863.19
2022-09-11T12:03:09.031Z,99861.78
2022-09-11T12:06:02.248Z,99855.94
2022-09-11T12:08:44.189Z,99852.69
2022-09-11T12:11:17.814Z,99850.44
2022-09-11T12:13:50.801Z,99853.63
2022-09-11T12:16:30.630Z,99851.09
2022-09-11T12:19:22.629Z,99849.63
2022-09-11T12:21:53.770Z,99876.72
2022-09-11T12:24:52.729Z,99884.53
2022-09-11T12:27:38.265Z,99886.25
2022-09-11T12:30:27.216Z,99886.63
2022-09-11T12:33:03.313Z,99886.25
2022-09-11T12:35:54.460Z,99884.63
2022-09-11T12:38:42.343Z,99873.06
2022-09-11T12:41:35.116Z,99870.22
2022-09-11T12:44:06.867Z,99872.88
2022-09-11T12:46:58.522Z,99877.19
2022-09-11T12:49:31.800Z,99876.12
2022-09-11T12:52:20.208Z,99878.00
2022-09-11T12:54:55.569Z,99869.53
2022-09-11T12:57:35.401Z,99864.97
2022-09-11T13:00:13.795Z,99863.19
2022-09-11T13:02:44.690Z,99863.75
2022-09-11T13:05:28.600Z,99855.56
2022-09-11T13:08:05.570Z,99864.81
2022-09-11T13:10:39.596Z,99861.31
2022-09-11T13:13:36.285Z,99863.50
2022-09-11T13:16:19.768Z,99860.59
2022-09-11T13:18:50.880Z,99856.69
2022-09-11T13:21:24.427Z,99850.63
2022-09-11T13:23:54.740Z,99856.78
2022-09-11T13:26:32.222Z,99858.63
2022-09-11T13:29:03.769Z,99861.06
2022-09-11T13:31:42.491Z,99855.53
2022-09-11T13:34:26.354Z,99852.94
2022-09-11T13:36:58.552Z,99842.31
2022-09-11T13:39:32.173Z,99842.06
2022-09-11T13:42:05.653Z,99834.50
2022-09-11T13:44:47.341Z,99829.09
2022-09-11T13:47:30.633Z,99830.31
2022-09-11T13:50:06.146Z,99824.53
2022-09-11T13:52:40.281Z,99819.13
2022-09-11T13:55:15.244Z,99810.13
2022-09-11T13:58:27.715Z,99823.81
2022-09-11T14:00:59.613Z,99817.16
2022-09-11T14:03:30.723Z,99821.06
2022-09-11T14:06:08.948Z,99813.41
2022-09-11T14:08:47.424Z,99815.56
2022-09-11T14:11:29.387Z,99818.44
2022-09-11T14:14:29.380Z,99807.06
2022-09-11T14:17:01.566Z,99799.19
2022-09-11T14:19:38.587Z,99791.50
2022-09-11T14:22:36.224Z,99785.63
2022-09-11T14:25:10.029Z,99785.88
2022-09-11T14:27:45.148Z,99779.16
2022-09-11T14:30:34.804Z,99773.69
2022-09-11T14:33:23.833Z,99781.13
2022-09-11T14:36:10.958Z,99777.47
2022-09-11T14:38:43.932Z,99776.91
2022-09-11T14:41:17.073Z,99767.72
2022-09-11T14:43:53.601Z,99781.00
2022-09-11T14:46:24.374Z,99776.34
2022-09-11T14:48:52.564Z,99778.59
2022-09-11T14:51:31.269Z,99778.88
2022-09-11T14:54:04.316Z,99776.59
2022-09-11T14:56:34.496Z,99779.63
2022-09-11T14:59:17.225Z,99766.59
2022-09-11T15:01:57.620Z,99775.06
2022-09-11T15:04:29.857Z,99778.72
2022-09-11T15:07:03.328Z,99784.16
2022-09-11T15:09:37.185Z,99780.03
2022-09-11T15:12:22.665Z,99767.91
2022-09-11T15:15:05.324Z,99778.47
2022-09-11T15:17:37.405Z,99780.31
2022-09-11T15:20:19.206Z,99772.91
2022-09-11T15:22:53.305Z,99775.38
2022-09-11T15:25:29.114Z,99776.28
2022-09-11T15:28:03.308Z,99777.81
2022-09-11T15:30:39.080Z,99770.47
2022-09-11T15:33:15.791Z,99781.38
2022-09-11T15:35:53.561Z,99781.72
2022-09-11T15:38:24.322Z,99785.25
2022-09-11T15:40:58.228Z,99786.25
2022-09-11T15:43:40.294Z,99781.56
2022-09-11T15:46:15.596Z,99779.63
2022-09-11T15:48:50.152Z,99784.28
2022-09-11T15:51:26.917Z,99789.28
2022-09-11T15:54:01.295Z,99788.22
2022-09-11T15:56:30.085Z,99781.22
2022-09-11T15:59:04.855Z,99783.94
2022-09-11T16:01:37.597Z,99780.00
2022-09-11T16:04:09.538Z,99778.16
2022-09-11T16:06:42.284Z,99788.25
2022-09-11T16:09:23.013Z,99797.22
2022-09-11T16:11:57.127Z,99784.06
2022-09-11T16:14:32.934Z,99788.81
2022-09-11T16:17:07.821Z,99786.56
2022-09-11T16:19:42.977Z,99798.19
2022-09-11T16:22:11.672Z,99794.34
2022-09-11T16:24:44.279Z,99800.41
2022-09-11T16:27:14.216Z,99803.81
2022-09-11T16:32:38.466Z,99807.16
2022-09-11T16:35:13.471Z,99813.16
2022-09-11T16:37:42.082Z,99811.91
2022-09-11T16:40:12.744Z,99816.25
2022-09-11T16:42:45.921Z,99814.47
2022-09-11T16:45:16.180Z,99814.88
2022-09-11T16:47:48.124Z,99813.31
2022-09-11T16:50:17.580Z,99814.47
2022-09-11T16:52:51.217Z,99809.94
2022-09-11T16:55:23.191Z,99809.94
2022-09-11T16:57:55.322Z,99819.66
2022-09-11T17:00:26.085Z,99813.19
2022-09-11T17:02:53.799Z,99817.06
2022-09-11T17:05:21.524Z,99810.66
2022-09-11T17:07:52.771Z,99818.28
2022-09-11T17:10:20.871Z,99820.19
2022-09-11T17:12:52.238Z,99822.56
2022-09-11T17:15:20.529Z,99825.34
2022-09-11T17:17:50.529Z,99821.75
2022-09-11T17:20:21.737Z,99816.31
2022-09-11T17:22:53.749Z,99827.00
2022-09-11T17:25:26.051Z,99829.94
2022-09-11T17:27:56.619Z,99829.25
2022-09-11T17:30:27.967Z,99838.59
2022-09-11T17:32:57.416Z,99842.25
2022-09-11T17:35:27.097Z,99844.22
2022-09-11T17:37:55.735Z,99843.63
2022-09-11T17:40:23.919Z,99844.34
2022-09-11T17:42:55.902Z,99846.59
2022-09-11T17:45:25.393Z,99848.56
2022-09-11T17:47:53.895Z,99852.84
2022-09-11T17:50:21.827Z,99850.44
2022-09-11T17:52:52.678Z,99852.81
2022-09-11T17:55:23.013Z,99859.97
2022-09-11T17:57:54.826Z,99862.63
2022-09-11T18:00:23.752Z,99862.03
2022-09-11T18:02:54.392Z,99865.59
2022-09-11T18:05:23.146Z,99863.06
2022-09-11T18:07:53.852Z,99875.59
2022-09-11T18:10:24.479Z,99862.47
2022-09-11T18:12:58.617Z,99871.50
2022-09-11T18:15:29.724Z,99873.44
2022-09-11T18:17:57.960Z,99874.13
2022-09-11T18:20:28.102Z,99870.28
2022-09-11T18:22:56.639Z,99881.81
2022-09-11T18:25:26.508Z,99876.28
2022-09-11T18:27:56.188Z,99873.81
2022-09-11T18:30:24.397Z,99869.19
2022-09-11T18:32:54.365Z,99879.31
2022-09-11T18:35:23.114Z,99877.38
2022-09-11T18:37:54.572Z,99871.22
2022-09-11T18:40:23.584Z,99867.41
2022-09-11T18:42:53.046Z,99874.25
2022-09-11T18:45:22.055Z,99872.81
2022-09-11T18:47:54.913Z,99870.22
2022-09-11T18:50:25.857Z,99869.16
2022-09-11T18:52:57.091Z,99871.31
2022-09-11T18:55:29.936Z,99870.34
2022-09-11T18:58:04.477Z,99873.00
2022-09-11T19:00:33.083Z,99875.16
2022-09-11T19:03:02.881Z,99874.97
2022-09-11T19:05:31.463Z,99874.91
2022-09-11T19:08:01.610Z,99876.94
2022-09-11T19:10:30.223Z,99887.03
2022-09-11T19:13:01.334Z,99889.03
2022-09-11T19:15:34.144Z,99885.94
2022-09-11T19:18:03.145Z,99885.28
2022-09-11T19:20:32.171Z,99884.00
2022-09-11T19:23:02.760Z,99879.47
2022-09-11T19:25:33.649Z,99881.41
2022-09-11T19:28:02.664Z,99876.94
2022-09-11T19:30:40.082Z,99880.66
2022-09-11T19:33:13.414Z,99880.16
2022-09-11T19:35:42.194Z,99874.44
2022-09-11T19:38:10.169Z,99877.94
2022-09-11T19:40:38.554Z,99879.00
2022-09-11T19:43:07.448Z,99879.50
2022-09-11T19:45:35.561Z,99883.19
2022-09-11T19:48:04.540Z,99883.28
2022-09-11T19:50:37.371Z,99887.03
2022-09-11T19:53:06.276Z,99888.28
2022-09-11T19:55:35.608Z,99886.69
2022-09-11T19:58:04.510Z,99883.00
2022-09-11T20:00:36.107Z,99883.66
2022-09-11T20:03:06.413Z,99891.91
2022-09-11T20:05:40.797Z,99882.94
2022-09-11T20:08:14.022Z,99893.09
2022-09-11T20:10:46.970Z,99896.97
2022-09-11T20:13:18.992Z,99898.44
2022-09-11T20:15:47.690Z,99893.41
2022-09-11T20:18:20.602Z,99891.06
2022-09-11T20:20:55.351Z,99892.97
2022-09-11T20:23:27.469Z,99900.78
2022-09-11T20:26:21.555Z,99901.00
2022-09-11T20:29:03.274Z,99918.25
2022-09-11T20:31:42.538Z,99917.72
2022-09-11T20:34:23.327Z,99909.16
2022-09-11T20:36:54.937Z,99905.03
2022-09-11T20:39:28.520Z,99911.28
2022-09-11T20:42:02.430Z,99915.09
2022-09-11T20:44:37.001Z,99915.19
2022-09-11T20:47:13.959Z,99921.12
2022-09-11T20:49:48.288Z,99926.50
2022-09-11T20:52:20.230Z,99926.28
2022-09-11T20:54:51.737Z,99933.19
2022-09-11T20:57:22.678Z,99939.94
2022-09-11T20:59:51.788Z,99933.59
2022-09-11T21:02:20.818Z,99934.41
2022-09-11T21:04:49.233Z,99934.44
2022-09-11T21:07:17.608Z,99936.75
2022-09-11T21:09:46.408Z,99932.75
2022-09-11T21:12:14.472Z,99938.88
2022-09-11T21:14:45.958Z,99931.84
2022-09-11T21:17:13.585Z,99946.69
2022-09-11T21:19:43.078Z,99930.38
2022-09-11T21:22:16.094Z,99943.19
2022-09-11T21:24:45.884Z,99938.69
2022-09-11T21:27:15.429Z,99947.16
2022-09-11T21:29:43.185Z,99949.81
2022-09-11T21:32:13.387Z,99942.13
2022-09-11T21:34:43.257Z,99951.53
2022-09-11T21:37:13.990Z,99944.72
2022-09-11T21:39:44.601Z,99948.16
2022-09-11T21:42:15.149Z,99945.47
2022-09-11T21:44:45.284Z,99937.50
2022-09-11T21:47:14.093Z,99938.22
2022-09-11T21:49:45.950Z,99944.75
2022-09-11T21:52:16.548Z,99931.94
2022-09-11T21:54:46.859Z,99925.47
2022-09-11T21:57:18.092Z,99930.28
2022-09-11T21:59:49.089Z,99931.38
2022-09-11T22:02:24.372Z,99931.72
2022-09-11T22:04:56.630Z,99938.41
2022-09-11T22:07:32.453Z,99929.25
2022-09-11T22:10:07.421Z,99936.25
2022-09-11T22:12:48.627Z,99930.03
2022-09-11T22:15:28.135Z,99930.03
2022-09-11T22:18:11.852Z,99937.88
2022-09-11T22:20:44.763Z,99940.34
2022-09-11T22:23:23.264Z,99942.66
2022-09-11T22:26:24.694Z,99938.25
2022-09-11T22:28:59.729Z,99941.72
2022-09-11T22:31:33.509Z,99936.62
2022-09-11T22:34:16.595Z,99939.28
2022-09-11T22:36:54.245Z,99949.06
2022-09-11T22:39:27.420Z,99955.41
2022-09-11T22:42:08.504Z,99960.22
2022-09-11T22:44:45.175Z,99962.37
2022-09-11T22:47:23.504Z,99959.44
2022-09-11T22:50:00.777Z,99962.09
2022-09-11T22:52:40.258Z,99959.62
2022-09-11T22:55:15.557Z,99956.06
2022-09-11T22:57:57.675Z,99960.78
2022-09-11T23:00:42.525Z,99955.22
2022-09-11T23:03:20.676Z,99958.91
2022-09-11T23:06:23.620Z,99962.97
2022-09-11T23:09:01.172Z,99964.72
2022-09-11T23:11:40.176Z,99968.59
2022-09-11T23:14:29.343Z,99967.09
2022-09-11T23:17:10.846Z,99963.50
2022-09-11T23:19:49.671Z,99962.03
2022-09-11T23:22:28.047Z,99963.37
2022-09-11T23:25:14.313Z,99971.16
2022-09-11T23:28:09.311Z,99964.16
2022-09-11T23:30:42.550Z,99962.03
2022-09-11T23:33:17.701Z,99968.41
2022-09-11T23:35:56.704Z,99965.13
2022-09-11T23:38:30.065Z,99969.66
2022-09-11T23:41:05.455Z,99963.41
2022-09-11T23:43:42.770Z,99962.34
2022-09-11T23:46:24.224Z,99963.59
2022-09-11T23:49:08.761Z,99966.25
2022-09-11T23:51:42.444Z,99971.91
2022-09-11T23:54:19.150Z,99968.88
2022-09-11T23:56:54.715Z,99967.47
2022-09-11T23:59:27.941Z,99968.09
